Time;durP1;ratioP1;P1;durP2;ratioP2;P2;SDS_P1;SDS_P2;PMS_P1;PMS_P2;Temp;Humidity;BMP_temperature;BMP_pressure;BME280_temperature;BME280_humidity;BME280_pressure;Samples;Min_cycle;Max_cycle;Signal;HPM_P1;HPM_P2
2023/06/15 00:01:06;;;;;;;1.85;0.70;;;16.50;88.30;;;;;;5066410;28;20127;-71
2023/06/15 00:03:32;;;;;;;2.00;0.88;;;16.40;88.70;;;;;;5070101;28;20021;-73
2023/06/15 00:05:57;;;;;;;2.92;1.10;;;16.40;89.10;;;;;;5066693;28;20033;-71
2023/06/15 00:08:23;;;;;;;2.55;0.70;;;16.40;89.50;;;;;;5069545;28;20060;-71
2023/06/15 00:10:49;;;;;;;2.25;0.95;;;16.40;89.90;;;;;;5068936;28;20108;-71
2023/06/15 00:13:17;;;;;;;1.98;1.02;;;16.40;90.10;;;;;;5068429;28;20029;-71
2023/06/15 00:15:43;;;;;;;1.75;0.70;;;16.40;90.20;;;;;;5066956;28;20036;-71
2023/06/15 00:18:08;;;;;;;3.92;0.90;;;16.30;90.30;;;;;;5067705;28;20029;-71
2023/06/15 00:20:34;;;;;;;9.32;1.02;;;16.30;90.60;;;;;;5065434;28;20029;-71
2023/06/15 00:23:00;;;;;;;2.20;0.73;;;16.20;90.70;;;;;;5066700;28;20095;-71
2023/06/15 00:25:25;;;;;;;3.13;1.20;;;16.20;90.90;;;;;;5070707;28;20093;-71
2023/06/15 00:27:51;;;;;;;2.17;1.20;;;16.20;91.10;;;;;;5067897;28;20028;-71
2023/06/15 00:30:18;;;;;;;2.70;1.05;;;16.20;91.20;;;;;;5068893;28;20036;-71
2023/06/15 00:32:44;;;;;;;1.58;0.80;;;16.30;91.20;;;;;;5067649;28;20028;-71
2023/06/15 00:35:10;;;;;;;2.28;0.93;;;16.40;91.20;;;;;;5057917;28;20383;-71
2023/06/15 00:37:35;;;;;;;5.10;1.02;;;16.40;91.20;;;;;;5068638;28;20052;-71
2023/06/15 00:40:01;;;;;;;3.72;1.52;;;16.40;91.20;;;;;;5069198;28;20383;-71
2023/06/15 00:42:30;;;;;;;5.03;1.20;;;16.50;91.30;;;;;;5067222;28;20124;-71
2023/06/15 00:44:56;;;;;;;2.72;0.90;;;16.40;91.30;;;;;;5070871;28;20059;-71
2023/06/15 00:47:21;;;;;;;3.38;1.02;;;16.40;91.50;;;;;;5066869;28;20465;-71
2023/06/15 00:49:48;;;;;;;4.03;1.30;;;16.40;91.70;;;;;;5066647;28;20032;-71
2023/06/15 00:52:16;;;;;;;3.95;1.45;;;16.30;91.90;;;;;;5062559;28;20070;-71
2023/06/15 00:54:43;;;;;;;2.60;0.82;;;16.30;92.20;;;;;;5068085;28;20543;-71
2023/06/15 00:57:10;;;;;;;5.45;1.17;;;16.20;92.40;;;;;;5066564;28;20115;-71
2023/06/15 00:59:40;;;;;;;2.53;1.15;;;16.10;92.60;;;;;;5071590;28;20024;-71
2023/06/15 01:02:05;;;;;;;2.20;1.33;;;16.10;92.90;;;;;;5062829;28;20497;-71
2023/06/15 01:04:31;;;;;;;2.42;1.33;;;16.10;93.20;;;;;;5069198;28;20067;-71
2023/06/15 01:07:02;;;;;;;3.13;1.20;;;16.00;93.40;;;;;;5068948;28;23301;-71
2023/06/15 01:09:29;;;;;;;5.05;1.27;;;16.00;93.70;;;;;;5073275;28;20641;-71
2023/06/15 01:11:57;;;;;;;5.47;1.42;;;16.00;93.90;;;;;;5069334;28;20036;-71
2023/06/15 01:14:25;;;;;;;2.00;1.00;;;16.00;94.30;;;;;;5068908;28;20082;-71
2023/06/15 01:16:57;;;;;;;5.28;1.83;;;16.00;94.20;;;;;;5072230;28;20021;-71
2023/06/15 01:19:53;;;;;;;3.72;1.40;;;15.90;94.30;;;;;;5073368;28;20032;-71
2023/06/15 01:22:35;;;;;;;3.33;1.20;;;15.90;94.40;;;;;;5071548;28;20123;-71
2023/06/15 01:25:29;;;;;;;2.97;1.47;;;15.90;94.40;;;;;;5066893;28;20103;-71
2023/06/15 01:28:01;;;;;;;2.85;1.48;;;16.00;94.40;;;;;;5068602;28;20285;-71
2023/06/15 01:30:40;;;;;;;2.40;1.33;;;16.00;94.60;;;;;;5069125;28;20633;-71
2023/06/15 01:33:05;;;;;;;3.50;1.65;;;16.00;94.50;;;;;;5065245;28;20031;-71
2023/06/15 01:35:31;;;;;;;2.67;1.42;;;16.00;94.60;;;;;;5062517;28;20115;-71
2023/06/15 01:37:56;;;;;;;7.18;2.30;;;16.00;94.70;;;;;;5065856;28;20021;-71
2023/06/15 01:40:22;;;;;;;3.92;1.40;;;15.90;94.80;;;;;;5068084;28;20048;-71
2023/06/15 01:42:49;;;;;;;4.95;1.88;;;16.00;94.90;;;;;;5066515;28;20525;-71
2023/06/15 01:45:16;;;;;;;4.45;2.00;;;16.00;95.00;;;;;;5069570;28;20363;-71
2023/06/15 01:47:43;;;;;;;5.78;2.30;;;16.00;95.10;;;;;;5070966;28;20031;-71
2023/06/15 01:50:10;;;;;;;4.32;1.88;;;16.00;95.10;;;;;;5070457;28;20046;-71
2023/06/15 01:52:36;;;;;;;5.25;2.08;;;16.00;95.20;;;;;;5068110;28;20032;-71
2023/06/15 01:55:02;;;;;;;7.65;2.40;;;16.00;95.30;;;;;;5069692;28;20165;-71
2023/06/15 01:57:27;;;;;;;3.78;2.03;;;16.00;95.50;;;;;;5068169;28;20024;-71
2023/06/15 01:59:54;;;;;;;3.35;2.20;;;16.00;95.70;;;;;;5061816;28;20562;-71
2023/06/15 02:02:20;;;;;;;6.75;2.10;;;15.90;95.90;;;;;;5070516;28;20116;-71
2023/06/15 02:04:46;;;;;;;3.20;1.92;;;15.90;96.10;;;;;;5068495;28;20393;-71
2023/06/15 02:07:11;;;;;;;3.90;2.35;;;15.90;96.30;;;;;;5064862;28;20021;-71
2023/06/15 02:09:37;;;;;;;4.63;2.03;;;15.90;96.50;;;;;;5055388;28;20104;-71
2023/06/15 02:12:03;;;;;;;3.45;2.47;;;15.80;96.60;;;;;;5072071;28;20043;-71
2023/06/15 02:14:28;;;;;;;7.85;2.50;;;15.80;96.90;;;;;;5069393;28;20028;-71
2023/06/15 02:16:56;;;;;;;4.60;2.58;;;15.70;97.10;;;;;;5069450;28;20405;-71
2023/06/15 02:19:22;;;;;;;6.53;2.53;;;15.70;97.40;;;;;;5072052;28;20027;-71
2023/06/15 02:21:49;;;;;;;5.53;2.42;;;15.70;97.80;;;;;;5068301;28;20028;-71
2023/06/15 02:24:16;;;;;;;5.75;3.10;;;15.70;98.00;;;;;;5067592;28;20095;-71
2023/06/15 02:26:42;;;;;;;4.53;3.05;;;15.70;98.50;;;;;;5068978;28;20087;-71
2023/06/15 02:29:08;;;;;;;7.00;3.40;;;15.70;98.60;;;;;;5071373;28;20029;-71
2023/06/15 02:31:33;;;;;;;4.88;3.00;;;15.60;98.80;;;;;;5070654;28;20060;-71
2023/06/15 02:33:59;;;;;;;5.95;3.00;;;15.60;99.00;;;;;;5066969;28;20021;-71
2023/06/15 02:36:26;;;;;;;6.78;3.38;;;15.60;99.30;;;;;;5066816;28;20079;-71
2023/06/15 02:38:51;;;;;;;5.82;2.97;;;15.50;99.60;;;;;;5068770;28;20025;-71
2023/06/15 02:41:17;;;;;;;3.92;2.85;;;15.50;99.90;;;;;;5059193;28;20078;-71
2023/06/15 02:43:42;;;;;;;6.57;2.92;;;15.40;99.90;;;;;;5061500;28;20027;-71
2023/06/15 02:46:08;;;;;;;9.00;3.40;;;15.40;99.90;;;;;;5069342;28;20033;-71
2023/06/15 02:48:36;;;;;;;5.47;3.33;;;15.40;99.90;;;;;;5070103;28;20039;-71
2023/06/15 02:51:01;;;;;;;7.47;3.45;;;15.40;99.90;;;;;;5065460;28;20171;-71
2023/06/15 02:53:27;;;;;;;8.07;3.45;;;15.30;99.90;;;;;;5063522;28;20639;-71
2023/06/15 02:55:53;;;;;;;7.38;3.55;;;15.30;99.90;;;;;;5067041;28;20056;-71
2023/06/15 02:58:24;;;;;;;7.38;4.10;;;15.30;99.90;;;;;;5068287;28;20040;-71
2023/06/15 03:00:51;;;;;;;6.00;3.95;;;15.30;99.90;;;;;;5063571;28;20493;-71
2023/06/15 03:03:22;;;;;;;8.30;3.95;;;15.30;99.90;;;;;;5068842;28;20048;-71
2023/06/15 03:05:51;;;;;;;7.80;3.97;;;15.30;99.90;;;;;;5068481;28;20133;-71
2023/06/15 03:08:18;;;;;;;6.82;4.35;;;15.30;99.90;;;;;;5069883;28;20481;-71
2023/06/15 03:10:45;;;;;;;8.10;4.78;;;15.30;99.90;;;;;;5068730;28;20039;-71
2023/06/15 03:13:10;;;;;;;5.95;3.83;;;15.30;99.90;;;;;;5069132;28;20117;-71
2023/06/15 03:15:36;;;;;;;5.18;3.92;;;15.30;99.90;;;;;;5058379;28;20538;-71
2023/06/15 03:18:03;;;;;;;6.88;4.13;;;15.30;99.90;;;;;;5062497;28;20024;-71
2023/06/15 03:20:32;;;;;;;7.30;4.80;;;15.30;99.90;;;;;;5059727;28;20388;-71
2023/06/15 03:22:58;;;;;;;10.13;4.50;;;15.30;99.90;;;;;;5059517;28;20021;-71
2023/06/15 03:25:23;;;;;;;8.82;4.80;;;15.20;99.90;;;;;;5067204;28;20078;-70
2023/06/15 03:27:53;;;;;;;8.50;4.90;;;15.20;99.90;;;;;;5066833;28;20020;-71
2023/06/15 03:30:19;;;;;;;6.55;4.57;;;15.20;99.90;;;;;;5057899;28;20434;-71
2023/06/15 03:32:47;;;;;;;6.88;4.10;;;15.20;99.90;;;;;;5067814;28;20028;-71
2023/06/15 03:35:12;;;;;;;8.70;5.15;;;15.20;99.90;;;;;;5065520;28;20039;-71
2023/06/15 03:37:38;;;;;;;12.38;4.47;;;15.10;99.90;;;;;;5069492;28;20414;-71
2023/06/15 03:40:07;;;;;;;9.05;4.50;;;15.20;99.90;;;;;;5070133;28;20029;-71
2023/06/15 03:42:33;;;;;;;7.50;5.07;;;15.10;99.90;;;;;;5057379;28;20028;-71
2023/06/15 03:44:59;;;;;;;9.90;4.13;;;15.10;99.90;;;;;;5069471;28;20037;-71
2023/06/15 03:47:25;;;;;;;8.73;5.03;;;15.20;99.90;;;;;;5067710;28;20086;-71
2023/06/15 03:49:50;;;;;;;6.45;4.10;;;15.20;99.90;;;;;;5062399;28;20036;-71
2023/06/15 03:52:16;;;;;;;7.75;4.00;;;15.20;99.90;;;;;;5066142;28;20087;-71
2023/06/15 03:54:41;;;;;;;5.40;4.18;;;15.20;99.90;;;;;;5076947;28;20025;-71
2023/06/15 03:57:07;;;;;;;6.57;3.95;;;15.20;99.90;;;;;;5065383;28;20104;-71
2023/06/15 03:59:33;;;;;;;8.30;4.75;;;15.20;99.90;;;;;;5069160;28;20025;-71
2023/06/15 04:01:58;;;;;;;8.77;4.55;;;15.20;99.90;;;;;;5069553;28;20045;-72
2023/06/15 04:04:24;;;;;;;7.78;4.82;;;15.20;99.90;;;;;;5059288;28;20024;-71
2023/06/15 04:06:52;;;;;;;10.90;4.20;;;15.20;99.90;;;;;;5066574;28;20021;-71
2023/06/15 04:09:18;;;;;;;7.82;5.00;;;15.20;99.90;;;;;;5067763;28;20028;-70
2023/06/15 04:11:44;;;;;;;7.35;4.68;;;15.30;99.90;;;;;;5070834;28;20048;-71
2023/06/15 04:14:12;;;;;;;8.70;4.90;;;15.20;99.90;;;;;;5066764;28;20032;-71
2023/06/15 04:16:37;;;;;;;9.38;4.60;;;15.30;99.90;;;;;;5065745;28;20029;-71
2023/06/15 04:19:03;;;;;;;7.10;4.57;;;15.30;99.90;;;;;;5067275;28;20524;-71
2023/06/15 04:21:28;;;;;;;7.32;4.53;;;15.30;99.90;;;;;;5062540;28;20040;-71
2023/06/15 04:23:55;;;;;;;6.95;4.50;;;15.40;99.90;;;;;;5065475;28;20037;-71
2023/06/15 04:26:21;;;;;;;8.48;4.72;;;15.40;99.90;;;;;;5060511;28;20028;-70
2023/06/15 04:28:49;;;;;;;8.98;5.05;;;15.40;99.90;;;;;;5055120;28;20025;-71
2023/06/15 04:31:20;;;;;;;6.22;4.22;;;15.50;99.90;;;;;;5068266;28;20039;-71
2023/06/15 04:33:47;;;;;;;8.00;5.07;;;15.60;99.90;;;;;;5072230;28;20470;-71
2023/06/15 04:36:13;;;;;;;8.55;4.88;;;15.60;99.90;;;;;;5072954;28;20374;-70
2023/06/15 04:38:48;;;;;;;9.43;5.30;;;15.60;99.90;;;;;;5068218;28;20107;-71
2023/06/15 04:41:14;;;;;;;8.93;4.78;;;15.70;99.90;;;;;;5070466;28;20055;-71
2023/06/15 04:43:40;;;;;;;6.53;5.30;;;15.80;99.90;;;;;;5072420;28;20017;-71
2023/06/15 04:46:06;;;;;;;9.38;5.55;;;15.90;99.90;;;;;;5068492;28;20033;-70
2023/06/15 04:48:32;;;;;;;7.68;5.53;;;15.90;99.90;;;;;;5070952;28;20020;-71
2023/06/15 04:50:59;;;;;;;8.18;5.43;;;16.00;99.90;;;;;;5069293;28;20516;-71
2023/06/15 04:53:25;;;;;;;8.35;4.90;;;16.10;99.90;;;;;;5073796;28;20028;-71
2023/06/15 04:55:51;;;;;;;6.28;4.07;;;16.30;99.90;;;;;;5071666;28;20119;-71
2023/06/15 04:58:17;;;;;;;7.03;4.18;;;16.60;99.90;;;;;;5067733;28;20083;-71
2023/06/15 05:00:43;;;;;;;11.90;4.97;;;17.00;99.90;;;;;;5071093;28;20465;-71
2023/06/15 05:03:08;;;;;;;9.70;3.60;;;17.40;99.90;;;;;;5073964;28;20067;-71
2023/06/15 05:05:34;;;;;;;9.50;4.00;;;17.70;99.90;;;;;;5071186;28;20417;-71
2023/06/15 05:08:00;;;;;;;6.30;3.45;;;18.00;99.90;;;;;;5073801;28;20024;-71
2023/06/15 05:10:25;;;;;;;7.45;4.25;;;18.30;99.90;;;;;;5069562;28;20033;-71
2023/06/15 05:12:51;;;;;;;5.90;3.90;;;18.60;99.90;;;;;;5071455;28;20033;-71
2023/06/15 05:15:17;;;;;;;9.43;4.13;;;18.90;99.90;;;;;;5071645;28;20056;-71
2023/06/15 05:17:43;;;;;;;8.93;3.63;;;19.20;99.90;;;;;;5071022;28;20052;-71
2023/06/15 05:20:10;;;;;;;7.78;4.18;;;19.60;99.90;;;;;;5080943;28;20052;-71
2023/06/15 05:22:35;;;;;;;7.32;3.72;;;19.90;99.90;;;;;;5072651;28;20028;-72
2023/06/15 05:25:05;;;;;;;6.32;3.58;;;20.20;99.90;;;;;;5066320;28;20040;-72
2023/06/15 05:27:31;;;;;;;8.63;4.15;;;20.40;99.90;;;;;;5068108;28;20077;-73
2023/06/15 05:29:56;;;;;;;7.85;3.08;;;20.60;99.90;;;;;;5070414;28;20032;-72
2023/06/15 05:32:22;;;;;;;7.57;4.28;;;20.80;99.90;;;;;;5073356;28;20027;-72
2023/06/15 05:34:47;;;;;;;5.32;3.42;;;21.00;99.90;;;;;;5075336;28;20082;-72
2023/06/15 05:37:13;;;;;;;8.50;4.95;;;21.10;99.20;;;;;;5069088;28;20488;-72
2023/06/15 05:39:38;;;;;;;7.85;3.67;;;21.20;98.40;;;;;;5072824;28;20032;-72
2023/06/15 05:42:04;;;;;;;8.77;3.88;;;21.30;98.10;;;;;;5072190;28;20035;-72
2023/06/15 05:44:30;;;;;;;8.55;4.20;;;21.50;97.40;;;;;;5074210;28;20111;-72
2023/06/15 05:46:55;;;;;;;6.60;3.47;;;21.60;97.00;;;;;;5069135;28;20174;-72
2023/06/15 05:49:21;;;;;;;10.07;5.22;;;21.70;96.30;;;;;;5069786;28;20056;-72
2023/06/15 05:51:46;;;;;;;11.23;4.85;;;21.60;95.50;;;;;;5063154;28;20120;-72
2023/06/15 05:54:12;;;;;;;7.53;4.18;;;21.50;95.10;;;;;;5073809;28;20428;-72
2023/06/15 05:56:38;;;;;;;7.65;5.03;;;21.40;95.10;;;;;;5063183;28;20191;-72
2023/06/15 05:59:03;;;;;;;8.50;4.13;;;21.30;94.70;;;;;;5071418;28;20041;-72
2023/06/15 06:01:29;;;;;;;7.43;4.15;;;21.20;94.70;;;;;;5071858;28;20049;-72
2023/06/15 06:03:54;;;;;;;7.63;4.88;;;21.20;94.60;;;;;;5070479;28;20103;-72
2023/06/15 06:06:20;;;;;;;8.88;5.20;;;21.20;94.70;;;;;;5072535;28;20115;-71
2023/06/15 06:08:46;;;;;;;7.70;4.32;;;21.10;94.60;;;;;;5073384;28;20024;-72
2023/06/15 06:11:12;;;;;;;9.13;5.57;;;21.10;94.50;;;;;;5067305;28;20405;-72
2023/06/15 06:13:37;;;;;;;10.23;5.32;;;21.20;94.50;;;;;;5069927;28;20103;-73
2023/06/15 06:16:03;;;;;;;9.30;5.20;;;21.20;94.50;;;;;;5060275;28;20028;-71
2023/06/15 06:18:28;;;;;;;8.00;5.07;;;21.20;94.50;;;;;;5071181;28;20100;-71
2023/06/15 06:20:54;;;;;;;8.48;5.57;;;21.20;94.30;;;;;;5066445;28;20103;-72
2023/06/15 06:23:20;;;;;;;12.13;5.88;;;21.20;94.30;;;;;;5069692;28;20021;-72
2023/06/15 06:25:45;;;;;;;10.48;5.40;;;21.20;94.20;;;;;;5068977;28;20033;-71
2023/06/15 06:28:11;;;;;;;12.57;6.50;;;21.20;94.30;;;;;;5070846;28;20051;-72
2023/06/15 06:30:38;;;;;;;11.00;5.53;;;21.20;94.40;;;;;;5070759;28;20036;-72
2023/06/15 06:33:09;;;;;;;9.05;5.30;;;21.40;94.30;;;;;;5064042;28;20028;-73
2023/06/15 06:35:35;;;;;;;6.10;4.82;;;21.30;94.10;;;;;;5066529;28;20028;-72
2023/06/15 06:38:01;;;;;;;9.25;5.50;;;21.30;94.00;;;;;;5067088;28;20040;-74
2023/06/15 06:40:26;;;;;;;9.75;5.80;;;21.40;93.60;;;;;;5068641;28;20036;-72
2023/06/15 06:42:52;;;;;;;14.85;6.10;;;21.40;93.50;;;;;;5068498;28;20029;-73
2023/06/15 06:45:20;;;;;;;10.48;5.72;;;21.50;93.40;;;;;;5069796;28;20029;-74
2023/06/15 06:47:46;;;;;;;8.90;5.22;;;21.60;93.40;;;;;;5059608;28;20490;-73
2023/06/15 06:50:11;;;;;;;10.82;5.00;;;21.70;93.40;;;;;;5062121;28;20048;-74
2023/06/15 06:52:37;;;;;;;9.60;5.45;;;21.80;93.20;;;;;;5071877;28;20025;-73
2023/06/15 06:55:04;;;;;;;17.25;6.82;;;21.90;92.90;;;;;;5061657;28;20035;-73
2023/06/15 06:57:30;;;;;;;11.27;6.38;;;21.90;92.80;;;;;;5068322;28;20115;-73
2023/06/15 06:59:56;;;;;;;12.98;6.65;;;22.00;92.50;;;;;;5069407;28;20036;-74
2023/06/15 07:02:21;;;;;;;10.55;6.60;;;22.00;92.20;;;;;;5067144;28;20112;-71
2023/06/15 07:04:48;;;;;;;9.23;6.05;;;22.00;92.30;;;;;;5069755;28;20024;-72
2023/06/15 07:07:13;;;;;;;9.80;5.18;;;22.10;92.10;;;;;;5071574;28;20025;-72
2023/06/15 07:09:39;;;;;;;8.60;4.60;;;22.10;91.80;;;;;;5071405;28;20032;-72
2023/06/15 07:12:05;;;;;;;9.82;4.25;;;22.20;91.80;;;;;;5071236;28;20071;-72
2023/06/15 07:14:30;;;;;;;9.88;4.70;;;22.30;91.20;;;;;;5071106;28;20488;-72
2023/06/15 07:16:56;;;;;;;9.90;3.80;;;22.30;91.30;;;;;;5051560;28;20025;-72
2023/06/15 07:19:22;;;;;;;5.63;4.30;;;22.50;91.20;;;;;;5068158;28;20016;-72
2023/06/15 07:21:47;;;;;;;6.63;4.13;;;22.60;90.90;;;;;;5071646;28;20482;-72
2023/06/15 07:24:13;;;;;;;8.77;4.53;;;22.80;90.30;;;;;;5069849;28;20039;-72
2023/06/15 07:26:39;;;;;;;5.70;4.63;;;22.90;90.20;;;;;;5071794;28;20028;-72
2023/06/15 07:29:04;;;;;;;9.80;3.63;;;23.00;89.30;;;;;;5070989;28;20378;-72
2023/06/15 07:31:30;;;;;;;8.00;3.95;;;23.20;89.50;;;;;;5069828;28;20482;-72
2023/06/15 07:33:56;;;;;;;9.77;4.28;;;23.20;87.70;;;;;;5070696;28;20020;-72
2023/06/15 07:36:22;;;;;;;10.05;4.35;;;23.20;86.60;;;;;;5070399;28;20082;-72
2023/06/15 07:38:47;;;;;;;10.73;4.20;;;23.30;86.50;;;;;;5071557;28;20043;-72
2023/06/15 07:41:13;;;;;;;6.72;4.03;;;23.50;86.40;;;;;;5060979;28;20021;-72
2023/06/15 07:43:38;;;;;;;4.57;3.40;;;23.50;85.70;;;;;;5070800;28;20028;-72
2023/06/15 07:46:04;;;;;;;10.65;4.18;;;23.60;85.20;;;;;;5069242;28;20078;-72
2023/06/15 07:48:30;;;;;;;6.18;3.30;;;23.60;84.80;;;;;;5071384;28;20113;-72
2023/06/15 07:50:56;;;;;;;7.30;3.45;;;23.80;84.40;;;;;;5070699;28;20555;-72
2023/06/15 07:53:21;;;;;;;6.78;3.03;;;23.80;84.40;;;;;;5071150;28;20040;-72
2023/06/15 07:55:47;;;;;;;9.32;3.88;;;23.90;82.90;;;;;;5068841;28;20103;-72
2023/06/15 07:58:12;;;;;;;9.43;2.83;;;24.10;82.30;;;;;;5068195;28;20117;-72
2023/06/15 08:00:38;;;;;;;5.22;3.08;;;24.10;81.70;;;;;;5071052;28;20045;-72
2023/06/15 08:03:03;;;;;;;7.47;3.75;;;24.30;80.60;;;;;;5070433;28;20032;-72
2023/06/15 08:05:29;;;;;;;5.30;3.53;;;24.40;80.40;;;;;;5070032;28;20033;-72
2023/06/15 08:07:55;;;;;;;4.63;3.28;;;24.50;79.60;;;;;;5073485;28;20028;-72
2023/06/15 08:10:21;;;;;;;6.28;3.03;;;24.50;79.40;;;;;;5075305;28;20027;-72
2023/06/15 08:12:47;;;;;;;6.15;3.70;;;24.50;79.10;;;;;;5073587;28;20027;-72
2023/06/15 08:15:12;;;;;;;7.75;3.45;;;24.60;78.50;;;;;;5073614;28;20037;-72
2023/06/15 08:17:38;;;;;;;10.82;3.55;;;24.70;78.60;;;;;;5075080;28;20094;-72
2023/06/15 08:20:09;;;;;;;6.05;2.95;;;24.80;78.10;;;;;;5073615;28;20363;-72
2023/06/15 08:22:35;;;;;;;6.88;3.38;;;24.90;76.60;;;;;;5072379;28;20396;-72
2023/06/15 08:25:01;;;;;;;7.13;2.85;;;24.90;75.90;;;;;;5073071;28;20524;-72
2023/06/15 08:27:27;;;;;;;7.03;3.22;;;24.90;76.00;;;;;;5074447;28;20060;-72
2023/06/15 08:29:54;;;;;;;5.78;2.78;;;24.90;75.40;;;;;;5073794;28;20025;-72
2023/06/15 08:32:19;;;;;;;3.45;2.20;;;24.90;75.30;;;;;;5074823;28;20481;-72
2023/06/15 08:34:45;;;;;;;7.50;2.97;;;24.90;74.60;;;;;;5065888;28;20104;-72
2023/06/15 08:37:12;;;;;;;6.47;3.30;;;24.90;74.30;;;;;;5072836;28;20025;-72
2023/06/15 08:39:38;;;;;;;7.53;2.65;;;24.90;73.40;;;;;;5073853;28;20478;-72
2023/06/15 08:42:05;;;;;;;5.72;2.90;;;24.90;72.70;;;;;;5071796;28;20118;-72
2023/06/15 08:44:31;;;;;;;7.22;2.10;;;24.90;71.40;;;;;;5072382;28;20032;-72
2023/06/15 08:47:03;;;;;;;3.38;2.15;;;24.90;71.20;;;;;;5074112;28;20024;-72
2023/06/15 08:49:30;;;;;;;6.30;2.05;;;25.10;70.60;;;;;;5074426;28;20021;-72
2023/06/15 08:51:58;;;;;;;8.00;2.22;;;25.10;70.30;;;;;;5073726;28;20036;-72
2023/06/15 08:54:27;;;;;;;7.57;2.45;;;25.30;69.50;;;;;;5073082;28;20025;-72
2023/06/15 08:56:54;;;;;;;4.38;2.42;;;25.30;68.40;;;;;;5071623;28;20028;-72
2023/06/15 08:59:21;;;;;;;5.05;2.08;;;25.20;67.20;;;;;;5074191;28;20542;-72
2023/06/15 09:01:47;;;;;;;5.53;2.08;;;25.20;67.30;;;;;;5074000;28;20041;-72
2023/06/15 09:04:14;;;;;;;6.32;1.98;;;25.30;65.20;;;;;;5073997;28;20150;-72
2023/06/15 09:06:40;;;;;;;4.97;2.17;;;25.30;64.70;;;;;;5065375;28;20024;-72
2023/06/15 09:09:06;;;;;;;5.40;1.92;;;25.30;64.90;;;;;;5062794;28;20035;-72
2023/06/15 09:11:41;;;;;;;5.30;1.55;;;25.40;65.20;;;;;;5066141;28;20078;-72
2023/06/15 09:14:09;;;;;;;3.50;1.65;;;25.60;64.80;;;;;;5073480;28;20020;-72
2023/06/15 09:16:35;;;;;;;3.92;1.50;;;25.70;61.90;;;;;;5072768;28;20029;-72
2023/06/15 09:19:13;;;;;;;3.90;1.60;;;25.60;61.30;;;;;;5072689;28;20028;-72
2023/06/15 09:21:49;;;;;;;3.38;1.45;;;25.60;61.20;;;;;;5073838;28;20024;-72
2023/06/15 09:24:16;;;;;;;4.72;1.23;;;25.70;60.90;;;;;;5072742;28;20035;-73
2023/06/15 09:26:45;;;;;;;4.40;1.70;;;25.70;60.40;;;;;;5055298;28;20032;-72
2023/06/15 09:29:11;;;;;;;6.05;1.70;;;25.70;59.10;;;;;;5052829;28;20041;-72
2023/06/15 09:31:38;;;;;;;10.90;1.67;;;25.70;59.40;;;;;;5053675;28;20107;-72
2023/06/15 09:34:13;;;;;;;4.47;1.58;;;25.90;58.90;;;;;;5056748;28;20095;-72
2023/06/15 09:36:44;;;;;;;7.82;1.50;;;25.80;57.60;;;;;;5071997;28;20479;-72
2023/06/15 09:39:38;;;;;;;2.88;1.20;;;25.80;57.60;;;;;;5072669;28;20826;-72
2023/06/15 09:42:04;;;;;;;2.92;1.17;;;25.90;57.50;;;;;;5066775;28;20195;-71
2023/06/15 09:44:29;;;;;;;6.53;1.65;;;25.90;57.50;;;;;;5073448;28;20021;-71
2023/06/15 09:46:59;;;;;;;5.68;1.17;;;25.90;57.10;;;;;;5073182;28;20398;-71
2023/06/15 09:49:26;;;;;;;3.25;1.27;;;25.90;57.40;;;;;;5072879;28;20021;-71
2023/06/15 09:51:56;;;;;;;4.40;1.27;;;25.90;57.80;;;;;;5071991;28;20041;-71
2023/06/15 09:54:24;;;;;;;5.07;1.27;;;26.00;57.10;;;;;;5073097;28;20104;-72
2023/06/15 09:56:51;;;;;;;6.68;1.27;;;26.00;57.60;;;;;;5071193;28;20028;-72
2023/06/15 09:59:18;;;;;;;2.03;1.27;;;26.10;57.60;;;;;;5069474;28;20506;-72
2023/06/15 10:01:55;;;;;;;3.95;1.50;;;26.20;55.00;;;;;;5070725;28;20269;-72
2023/06/15 10:04:31;;;;;;;6.93;1.35;;;26.40;53.80;;;;;;5073147;28;20013;-72
2023/06/15 10:07:04;;;;;;;2.38;1.20;;;26.60;54.30;;;;;;5072258;28;20058;-72
2023/06/15 10:09:37;;;;;;;4.03;1.17;;;26.90;54.60;;;;;;5072974;28;20032;-71
2023/06/15 10:12:11;;;;;;;3.22;1.17;;;27.10;53.70;;;;;;5071628;28;20033;-72
2023/06/15 10:14:54;;;;;;;3.70;1.42;;;27.10;53.80;;;;;;5072189;28;20051;-72
2023/06/15 10:17:24;;;;;;;2.97;1.30;;;27.40;54.10;;;;;;5072831;28;20104;-72
2023/06/15 10:19:52;;;;;;;3.30;1.05;;;27.60;54.00;;;;;;5072559;28;20024;-72
2023/06/15 10:22:21;;;;;;;3.97;1.42;;;27.70;53.70;;;;;;5072586;28;20078;-72
2023/06/15 10:24:47;;;;;;;3.47;1.23;;;27.70;52.90;;;;;;5070605;28;20054;-72
2023/06/15 10:27:14;;;;;;;5.03;1.40;;;27.60;52.80;;;;;;5072169;28;20115;-72
2023/06/15 10:30:24;;;;;;;2.28;1.10;;;27.60;53.60;;;;;;5070970;28;20114;-72
2023/06/15 10:32:57;;;;;;;5.10;1.30;;;27.90;52.70;;;;;;5026824;28;20045;-73
2023/06/15 10:35:29;;;;;;;4.93;1.30;;;28.10;53.20;;;;;;5058700;28;20036;-74
2023/06/15 10:38:31;;;;;;;3.25;1.50;;;28.30;52.20;;;;;;5068247;28;20501;-72
2023/06/15 10:41:01;;;;;;;2.28;1.30;;;28.40;51.80;;;;;;5070871;28;20147;-73
2023/06/15 10:43:29;;;;;;;3.42;1.45;;;28.40;50.90;;;;;;5064753;28;20036;-73
2023/06/15 10:45:56;;;;;;;5.57;2.25;;;28.10;50.90;;;;;;5070209;28;20017;-73
2023/06/15 10:48:24;;;;;;;3.42;1.35;;;28.10;51.30;;;;;;5063583;28;20027;-72
2023/06/15 10:50:52;;;;;;;4.78;1.08;;;28.10;50.80;;;;;;5070262;28;20037;-72
2023/06/15 10:53:23;;;;;;;3.30;1.20;;;28.30;50.80;;;;;;5067792;28;20107;-73
2023/06/15 10:55:55;;;;;;;3.08;1.42;;;28.40;50.10;;;;;;5071899;28;20158;-74
2023/06/15 10:58:22;;;;;;;3.17;2.00;;;28.50;51.80;;;;;;5070923;28;20025;-72
2023/06/15 11:01:15;;;;;;;5.82;1.90;;;28.80;51.30;;;;;;5070189;28;20048;-73
2023/06/15 11:03:41;;;;;;;2.58;1.33;;;28.90;50.40;;;;;;5069714;28;20036;-72
2023/06/15 11:06:21;;;;;;;3.10;1.20;;;28.80;50.30;;;;;;5066867;28;20048;-73
2023/06/15 11:08:52;;;;;;;5.75;1.88;;;28.50;49.80;;;;;;5067816;28;20047;-72
2023/06/15 11:11:32;;;;;;;4.83;1.83;;;28.10;50.10;;;;;;5067887;28;20489;-72
2023/06/15 11:14:04;;;;;;;4.60;1.23;;;27.90;50.60;;;;;;5067709;28;20093;-71
2023/06/15 11:16:35;;;;;;;3.42;1.50;;;28.00;51.00;;;;;;5067219;28;20551;-72
2023/06/15 11:19:13;;;;;;;7.57;1.33;;;28.20;50.60;;;;;;5068644;28;20561;-72
2023/06/15 11:21:50;;;;;;;4.63;1.23;;;28.30;50.80;;;;;;5066900;28;20025;-73
2023/06/15 11:24:16;;;;;;;4.68;1.20;;;28.20;51.30;;;;;;5066319;28;20017;-71
2023/06/15 11:26:43;;;;;;;3.70;1.30;;;28.20;51.30;;;;;;5067680;28;20032;-73
2023/06/15 11:29:12;;;;;;;3.53;1.40;;;28.10;51.10;;;;;;5067403;28;20112;-73
2023/06/15 11:31:40;;;;;;;5.28;1.30;;;28.00;50.70;;;;;;5064636;28;20163;-73
2023/06/15 11:34:10;;;;;;;5.95;1.52;;;27.70;51.40;;;;;;5062856;28;20517;-73
2023/06/15 11:36:36;;;;;;;5.25;2.10;;;27.80;51.40;;;;;;5053464;28;20017;-73
2023/06/15 11:39:04;;;;;;;4.88;1.67;;;27.80;51.30;;;;;;5065569;28;20112;-73
2023/06/15 11:41:30;;;;;;;3.13;1.33;;;28.00;51.30;;;;;;5064770;28;20102;-73
2023/06/15 11:43:56;;;;;;;3.97;1.50;;;28.20;52.00;;;;;;5069507;28;20490;-73
2023/06/15 11:46:23;;;;;;;2.70;1.27;;;28.40;51.00;;;;;;5069295;28;20078;-73
2023/06/15 11:48:54;;;;;;;7.65;1.30;;;28.40;50.40;;;;;;5066704;28;20024;-73
2023/06/15 11:51:20;;;;;;;3.77;1.53;;;28.20;50.50;;;;;;5068142;28;20546;-73
2023/06/15 11:53:46;;;;;;;3.50;1.52;;;28.00;50.90;;;;;;5060155;28;20104;-73
2023/06/15 11:56:16;;;;;;;4.57;1.55;;;27.80;50.90;;;;;;5068220;28;20016;-73
2023/06/15 11:58:46;;;;;;;5.90;1.83;;;27.60;51.20;;;;;;5071107;28;20067;-74
2023/06/15 12:01:14;;;;;;;4.50;1.63;;;27.40;51.30;;;;;;5066140;28;20052;-74
2023/06/15 12:03:45;;;;;;;5.55;1.40;;;27.30;51.90;;;;;;5071235;28;20094;-74
2023/06/15 12:06:16;;;;;;;4.68;1.20;;;27.20;52.10;;;;;;5061403;28;20025;-74
2023/06/15 12:08:43;;;;;;;3.15;1.30;;;27.30;52.60;;;;;;5060377;28;20052;-74
2023/06/15 12:11:09;;;;;;;3.00;1.30;;;27.70;52.50;;;;;;5067437;28;20047;-74
2023/06/15 12:13:39;;;;;;;5.22;1.65;;;28.10;53.20;;;;;;5051642;28;20025;-73
2023/06/15 12:16:08;;;;;;;4.22;2.03;;;28.40;52.10;;;;;;5067657;28;20107;-74
2023/06/15 12:18:34;;;;;;;5.43;1.35;;;28.60;51.20;;;;;;5066149;28;20035;-73
2023/06/15 12:21:03;;;;;;;4.18;1.38;;;28.80;51.20;;;;;;5070485;28;20489;-73
2023/06/15 12:23:48;;;;;;;3.60;1.35;;;29.10;50.70;;;;;;5062012;28;20078;-74
2023/06/15 12:26:17;;;;;;;3.15;1.10;;;29.10;50.50;;;;;;5064768;28;20531;-74
2023/06/15 12:28:48;;;;;;;4.18;1.20;;;29.00;50.30;;;;;;5066195;28;20025;-72
2023/06/15 12:31:14;;;;;;;2.83;1.25;;;28.80;50.40;;;;;;5061149;28;20095;-73
2023/06/15 12:33:42;;;;;;;5.10;1.42;;;28.50;50.60;;;;;;5065257;28;20043;-75
2023/06/15 12:36:14;;;;;;;3.50;1.30;;;28.10;51.60;;;;;;5068256;28;20100;-76
2023/06/15 12:38:46;;;;;;;8.68;2.45;;;27.90;52.10;;;;;;5058368;28;20031;-74
2023/06/15 12:41:18;;;;;;;4.43;1.50;;;27.60;52.00;;;;;;5063920;28;20032;-74
2023/06/15 12:43:45;;;;;;;5.28;1.50;;;27.40;52.80;;;;;;5051474;28;20120;-73
2023/06/15 12:46:11;;;;;;;3.10;1.20;;;27.30;52.90;;;;;;5053007;28;20067;-74
2023/06/15 12:48:36;;;;;;;6.95;1.30;;;27.30;53.00;;;;;;5066544;28;20367;-73